sensor_id;sensor_type;location;lat;lon;timestamp;pressure;altitude;pressure_sealevel;temperature;humidity
21730;BME280;11027;51.030;13.812;2023-07-24T00:00:40;99412.88;;;21.96;50.58
21730;BME280;11027;51.030;13.812;2023-07-24T00:03:06;99420.06;;;21.92;50.75
21730;BME280;11027;51.030;13.812;2023-07-24T00:05:31;99421.72;;;21.88;50.72
21730;BME280;11027;51.030;13.812;2023-07-24T00:07:57;99418.94;;;21.83;50.99
21730;BME280;11027;51.030;13.812;2023-07-24T00:10:22;99412.25;;;21.78;51.15
21730;BME280;11027;51.030;13.812;2023-07-24T00:12:47;99397.28;;;21.74;51.17
21730;BME280;11027;51.030;13.812;2023-07-24T00:15:13;99395.06;;;21.71;51.09
21730;BME280;11027;51.030;13.812;2023-07-24T00:17:38;99395.59;;;21.68;51.45
21730;BME280;11027;51.030;13.812;2023-07-24T00:20:03;99400.03;;;21.64;51.29
21730;BME280;11027;51.030;13.812;2023-07-24T00:24:54;99412.19;;;21.58;51.53
21730;BME280;11027;51.030;13.812;2023-07-24T00:27:19;99403.31;;;21.56;51.72
21730;BME280;11027;51.030;13.812;2023-07-24T00:29:44;99398.63;;;21.56;51.82
21730;BME280;11027;51.030;13.812;2023-07-24T00:32:10;99393.91;;;21.57;51.92
21730;BME280;11027;51.030;13.812;2023-07-24T00:34:35;99380.59;;;21.54;52.27
21730;BME280;11027;51.030;13.812;2023-07-24T00:37:00;99376.16;;;21.53;51.84
21730;BME280;11027;51.030;13.812;2023-07-24T00:39:26;99372.28;;;21.54;52.12
21730;BME280;11027;51.030;13.812;2023-07-24T00:41:53;99381.16;;;21.56;52.26
21730;BME280;11027;51.030;13.812;2023-07-24T00:44:19;99370.91;;;21.56;52.33
21730;BME280;11027;51.030;13.812;2023-07-24T00:46:44;99374.50;;;21.57;52.44
21730;BME280;11027;51.030;13.812;2023-07-24T00:49:09;99375.34;;;21.57;52.73
21730;BME280;11027;51.030;13.812;2023-07-24T00:51:35;99380.03;;;21.57;52.92
21730;BME280;11027;51.030;13.812;2023-07-24T00:54:02;99371.16;;;21.55;53.54
21730;BME280;11027;51.030;13.812;2023-07-24T00:56:28;99376.16;;;21.53;53.88
21730;BME280;11027;51.030;13.812;2023-07-24T00:58:54;99376.97;;;21.48;54.37
21730;BME280;11027;51.030;13.812;2023-07-24T01:01:23;99374.44;;;21.42;54.50
21730;BME280;11027;51.030;13.812;2023-07-24T01:03:51;99372.75;;;21.41;54.70
21730;BME280;11027;51.030;13.812;2023-07-24T01:06:16;99370.53;;;21.37;55.04
21730;BME280;11027;51.030;13.812;2023-07-24T01:08:41;99375.53;;;21.35;55.11
21730;BME280;11027;51.030;13.812;2023-07-24T01:11:13;99374.09;;;21.33;55.05
21730;BME280;11027;51.030;13.812;2023-07-24T01:13:43;99368.84;;;21.31;55.11
21730;BME280;11027;51.030;13.812;2023-07-24T01:16:13;99366.34;;;21.30;55.21
21730;BME280;11027;51.030;13.812;2023-07-24T01:18:39;99365.53;;;21.29;55.13
21730;BME280;11027;51.030;13.812;2023-07-24T01:21:06;99372.72;;;21.30;55.12
21730;BME280;11027;51.030;13.812;2023-07-24T01:24:03;99366.34;;;21.30;55.36
21730;BME280;11027;51.030;13.812;2023-07-24T01:26:33;99372.16;;;21.28;55.41
21730;BME280;11027;51.030;13.812;2023-07-24T01:28:59;99363.84;;;21.28;55.33
21730;BME280;11027;51.030;13.812;2023-07-24T01:31:24;99369.38;;;21.28;55.53
21730;BME280;11027;51.030;13.812;2023-07-24T01:33:49;99361.06;;;21.28;55.31
21730;BME280;11027;51.030;13.812;2023-07-24T01:36:15;99357.22;;;21.29;55.21
21730;BME280;11027;51.030;13.812;2023-07-24T01:38:41;99358.88;;;21.30;55.16
21730;BME280;11027;51.030;13.812;2023-07-24T01:41:07;99352.78;;;21.33;54.70
21730;BME280;11027;51.030;13.812;2023-07-24T01:43:32;99354.44;;;21.34;54.83
21730;BME280;11027;51.030;13.812;2023-07-24T01:45:58;99358.06;;;21.35;54.86
21730;BME280;11027;51.030;13.812;2023-07-24T01:48:23;99362.75;;;21.34;55.14
21730;BME280;11027;51.030;13.812;2023-07-24T01:50:49;99355.84;;;21.32;55.30
21730;BME280;11027;51.030;13.812;2023-07-24T01:53:15;99348.91;;;21.29;55.45
21730;BME280;11027;51.030;13.812;2023-07-24T01:55:40;99338.91;;;21.28;55.56
21730;BME280;11027;51.030;13.812;2023-07-24T01:58:05;99338.34;;;21.26;55.69
21730;BME280;11027;51.030;13.812;2023-07-24T02:00:30;99332.50;;;21.23;55.93
21730;BME280;11027;51.030;13.812;2023-07-24T02:02:56;99341.13;;;21.21;56.13
21730;BME280;11027;51.030;13.812;2023-07-24T02:05:21;99340.00;;;21.22;56.08
21730;BME280;11027;51.030;13.812;2023-07-24T02:07:47;99331.97;;;21.21;56.21
21730;BME280;11027;51.030;13.812;2023-07-24T02:10:12;99336.09;;;21.18;56.54
21730;BME280;11027;51.030;13.812;2023-07-24T02:12:37;99334.97;;;21.14;56.57
21730;BME280;11027;51.030;13.812;2023-07-24T02:15:03;99331.91;;;21.10;56.99
21730;BME280;11027;51.030;13.812;2023-07-24T02:17:28;99333.88;;;21.10;57.07
21730;BME280;11027;51.030;13.812;2023-07-24T02:19:53;99326.09;;;21.07;56.69
21730;BME280;11027;51.030;13.812;2023-07-24T02:22:19;99321.66;;;21.06;56.70
21730;BME280;11027;51.030;13.812;2023-07-24T02:24:44;99329.66;;;21.02;56.71
21730;BME280;11027;51.030;13.812;2023-07-24T02:27:12;99331.63;;;21.02;56.84
21730;BME280;11027;51.030;13.812;2023-07-24T02:29:39;99333.81;;;21.00;56.80
21730;BME280;11027;51.030;13.812;2023-07-24T02:32:04;99341.56;;;20.97;56.84
21730;BME280;11027;51.030;13.812;2023-07-24T02:34:30;99334.91;;;20.93;57.01
21730;BME280;11027;51.030;13.812;2023-07-24T02:36:55;99341.53;;;20.92;57.25
21730;BME280;11027;51.030;13.812;2023-07-24T02:39:20;99346.50;;;20.90;57.35
21730;BME280;11027;51.030;13.812;2023-07-24T02:41:48;99338.75;;;20.87;57.09
21730;BME280;11027;51.030;13.812;2023-07-24T02:44:13;99342.34;;;20.88;57.10
21730;BME280;11027;51.030;13.812;2023-07-24T02:46:39;99338.75;;;20.87;57.08
21730;BME280;11027;51.030;13.812;2023-07-24T02:49:04;99323.78;;;20.88;57.03
21730;BME280;11027;51.030;13.812;2023-07-24T02:51:30;99329.06;;;20.90;57.28
21730;BME280;11027;51.030;13.812;2023-07-24T02:53:55;99335.41;;;20.90;57.03
21730;BME280;11027;51.030;13.812;2023-07-24T02:56:20;99323.53;;;20.90;57.04
21730;BME280;11027;51.030;13.812;2023-07-24T02:58:46;99324.34;;;20.90;57.15
21730;BME280;11027;51.030;13.812;2023-07-24T03:01:11;99322.69;;;20.89;57.15
21730;BME280;11027;51.030;13.812;2023-07-24T03:03:39;99332.09;;;20.88;57.35
21730;BME280;11027;51.030;13.812;2023-07-24T03:06:04;99336.28;;;20.91;57.34
21730;BME280;11027;51.030;13.812;2023-07-24T03:08:29;99327.69;;;20.92;57.32
21730;BME280;11027;51.030;13.812;2023-07-24T03:10:54;99337.66;;;20.93;57.42
21730;BME280;11027;51.030;13.812;2023-07-24T03:13:20;99329.34;;;20.93;57.45
21730;BME280;11027;51.030;13.812;2023-07-24T03:15:52;99335.47;;;20.95;57.71
21730;BME280;11027;51.030;13.812;2023-07-24T03:18:17;99339.88;;;20.96;57.57
21730;BME280;11027;51.030;13.812;2023-07-24T03:20:43;99332.69;;;20.95;57.73
21730;BME280;11027;51.030;13.812;2023-07-24T03:23:08;99324.94;;;20.97;57.55
21730;BME280;11027;51.030;13.812;2023-07-24T03:25:33;99331.56;;;20.96;57.84
21730;BME280;11027;51.030;13.812;2023-07-24T03:28:00;99327.97;;;20.96;57.70
21730;BME280;11027;51.030;13.812;2023-07-24T03:30:26;99321.63;;;20.95;58.19
21730;BME280;11027;51.030;13.812;2023-07-24T03:32:51;99327.47;;;20.99;57.85
21730;BME280;11027;51.030;13.812;2023-07-24T03:35:16;99321.66;;;21.01;58.03
21730;BME280;11027;51.030;13.812;2023-07-24T03:37:41;99331.63;;;21.02;57.83
21730;BME280;11027;51.030;13.812;2023-07-24T03:40:07;99321.94;;;21.04;57.80
21730;BME280;11027;51.030;13.812;2023-07-24T03:42:32;99314.47;;;21.05;57.62
21730;BME280;11027;51.030;13.812;2023-07-24T03:44:58;99308.09;;;21.04;57.43
21730;BME280;11027;51.030;13.812;2023-07-24T03:47:23;99311.72;;;21.05;58.15
21730;BME280;11027;51.030;13.812;2023-07-24T03:49:49;99312.25;;;21.07;58.02
21730;BME280;11027;51.030;13.812;2023-07-24T03:52:15;99314.47;;;21.05;57.97
21730;BME280;11027;51.030;13.812;2023-07-24T03:54:40;99299.50;;;21.06;58.03
21730;BME280;11027;51.030;13.812;2023-07-24T03:57:06;99301.19;;;21.07;57.95
21730;BME280;11027;51.030;13.812;2023-07-24T03:59:31;99295.66;;;21.07;58.09
21730;BME280;11027;51.030;13.812;2023-07-24T04:01:57;99295.66;;;21.07;58.19
21730;BME280;11027;51.030;13.812;2023-07-24T04:04:23;99291.75;;;21.08;58.15
21730;BME280;11027;51.030;13.812;2023-07-24T04:06:48;99288.72;;;21.09;58.49
21730;BME280;11027;51.030;13.812;2023-07-24T04:09:13;99282.38;;;21.09;58.65
21730;BME280;11027;51.030;13.812;2023-07-24T04:11:42;99275.72;;;21.05;58.89
21730;BME280;11027;51.030;13.812;2023-07-24T04:14:08;99268.50;;;21.04;59.04
21730;BME280;11027;51.030;13.812;2023-07-24T04:16:33;99276.25;;;21.02;59.14
21730;BME280;11027;51.030;13.812;2023-07-24T04:18:58;99277.91;;;21.03;58.67
21730;BME280;11027;51.030;13.812;2023-07-24T04:21:24;99268.75;;;21.02;58.69
21730;BME280;11027;51.030;13.812;2023-07-24T04:23:49;99275.97;;;21.03;57.97
21730;BME280;11027;51.030;13.812;2023-07-24T04:26:14;99278.47;;;21.05;58.23
21730;BME280;11027;51.030;13.812;2023-07-24T04:28:39;99275.97;;;21.03;57.98
21730;BME280;11027;51.030;13.812;2023-07-24T04:31:05;99269.63;;;21.03;57.97
21730;BME280;11027;51.030;13.812;2023-07-24T04:33:30;99270.16;;;21.05;58.24
21730;BME280;11027;51.030;13.812;2023-07-24T04:35:55;99263.78;;;21.04;58.24
21730;BME280;11027;51.030;13.812;2023-07-24T04:38:21;99263.50;;;21.06;58.36
21730;BME280;11027;51.030;13.812;2023-07-24T04:40:46;99264.91;;;21.08;58.22
21730;BME280;11027;51.030;13.812;2023-07-24T04:43:12;99272.94;;;21.10;58.39
21730;BME280;11027;51.030;13.812;2023-07-24T04:45:37;99260.78;;;21.11;58.12
21730;BME280;11027;51.030;13.812;2023-07-24T04:48:02;99268.22;;;21.10;58.52
21730;BME280;11027;51.030;13.812;2023-07-24T04:50:28;99278.47;;;21.10;58.43
21730;BME280;11027;51.030;13.812;2023-07-24T04:52:53;99269.09;;;21.11;58.27
21730;BME280;11027;51.030;13.812;2023-07-24T04:55:18;99262.44;;;21.12;58.43
21730;BME280;11027;51.030;13.812;2023-07-24T04:57:43;99271.03;;;21.15;58.40
21730;BME280;11027;51.030;13.812;2023-07-24T05:00:09;99259.38;;;21.18;58.07
21730;BME280;11027;51.030;13.812;2023-07-24T05:02:34;99253.63;;;21.25;58.20
21730;BME280;11027;51.030;13.812;2023-07-24T05:05:00;99254.16;;;21.32;58.19
21730;BME280;11027;51.030;13.812;2023-07-24T05:07:25;99255.84;;;21.38;57.97
21730;BME280;11027;51.030;13.812;2023-07-24T05:09:50;99248.66;;;21.43;57.75
21730;BME280;11027;51.030;13.812;2023-07-24T05:12:15;99247.00;;;21.47;57.53
21730;BME280;11027;51.030;13.812;2023-07-24T05:14:41;99252.56;;;21.52;57.06
21730;BME280;11027;51.030;13.812;2023-07-24T05:17:06;99240.41;;;21.58;56.83
21730;BME280;11027;51.030;13.812;2023-07-24T05:19:31;99240.09;;;21.65;56.90
21730;BME280;11027;51.030;13.812;2023-07-24T05:21:56;99227.09;;;21.70;56.69
21730;BME280;11027;51.030;13.812;2023-07-24T05:24:22;99238.19;;;21.81;56.57
21730;BME280;11027;51.030;13.812;2023-07-24T05:26:47;99232.06;;;21.89;55.85
21730;BME280;11027;51.030;13.812;2023-07-24T05:29:12;99239.56;;;21.98;56.34
21730;BME280;11027;51.030;13.812;2023-07-24T05:31:37;99244.81;;;22.05;56.32
21730;BME280;11027;51.030;13.812;2023-07-24T05:34:03;99243.72;;;22.06;56.27
21730;BME280;11027;51.030;13.812;2023-07-24T05:36:29;99248.72;;;22.04;55.97
21730;BME280;11027;51.030;13.812;2023-07-24T05:38:54;99243.16;;;22.04;56.12
21730;BME280;11027;51.030;13.812;2023-07-24T05:41:19;99238.19;;;22.06;56.10
21730;BME280;11027;51.030;13.812;2023-07-24T05:43:44;99245.91;;;22.09;55.97
21730;BME280;11027;51.030;13.812;2023-07-24T05:46:10;99238.16;;;22.11;56.11
21730;BME280;11027;51.030;13.812;2023-07-24T05:48:35;99241.47;;;22.13;55.90
21730;BME280;11027;51.030;13.812;2023-07-24T05:51:00;99235.38;;;22.16;55.58
21730;BME280;11027;51.030;13.812;2023-07-24T05:53:25;99235.66;;;22.20;55.69
21730;BME280;11027;51.030;13.812;2023-07-24T05:56:02;99233.72;;;22.26;55.58
21730;BME280;11027;51.030;13.812;2023-07-24T05:58:28;99231.22;;;22.29;55.40
21730;BME280;11027;51.030;13.812;2023-07-24T06:00:54;99235.09;;;22.33;55.51
21730;BME280;11027;51.030;13.812;2023-07-24T06:03:20;99240.09;;;22.36;55.07
21730;BME280;11027;51.030;13.812;2023-07-24T06:05:46;99240.91;;;22.37;54.99
21730;BME280;11027;51.030;13.812;2023-07-24T06:08:11;99236.47;;;22.41;54.94
21730;BME280;11027;51.030;13.812;2023-07-24T06:10:37;99241.19;;;22.41;55.02
21730;BME280;11027;51.030;13.812;2023-07-24T06:13:02;99228.72;;;22.38;55.05
21730;BME280;11027;51.030;13.812;2023-07-24T06:15:28;99228.72;;;22.33;54.65
21730;BME280;11027;51.030;13.812;2023-07-24T06:17:53;99235.94;;;22.29;55.04
21730;BME280;11027;51.030;13.812;2023-07-24T06:20:18;99226.53;;;22.25;54.94
21730;BME280;11027;51.030;13.812;2023-07-24T06:22:44;99233.16;;;22.24;55.29
21730;BME280;11027;51.030;13.812;2023-07-24T06:25:09;99223.16;;;22.23;55.41
21730;BME280;11027;51.030;13.812;2023-07-24T06:27:34;99218.19;;;22.25;55.54
21730;BME280;11027;51.030;13.812;2023-07-24T06:30:00;99222.34;;;22.32;55.47
21730;BME280;11027;51.030;13.812;2023-07-24T06:32:25;99224.81;;;22.39;55.34
21730;BME280;11027;51.030;13.812;2023-07-24T06:34:50;99223.69;;;22.45;55.27
21730;BME280;11027;51.030;13.812;2023-07-24T06:37:15;99221.47;;;22.52;55.18
21730;BME280;11027;51.030;13.812;2023-07-24T06:39:41;99218.09;;;22.61;54.99
21730;BME280;11027;51.030;13.812;2023-07-24T06:42:07;99216.97;;;22.67;55.07
21730;BME280;11027;51.030;13.812;2023-07-24T06:44:32;99221.94;;;22.70;55.10
21730;BME280;11027;51.030;13.812;2023-07-24T06:46:57;99229.16;;;22.71;55.00
21730;BME280;11027;51.030;13.812;2023-07-24T06:49:23;99229.16;;;22.71;55.22
21730;BME280;11027;51.030;13.812;2023-07-24T06:51:48;99223.03;;;22.74;55.14
21730;BME280;11027;51.030;13.812;2023-07-24T06:54:13;99228.84;;;22.83;54.88
21730;BME280;11027;51.030;13.812;2023-07-24T06:56:38;99226.25;;;22.96;54.84
21730;BME280;11027;51.030;13.812;2023-07-24T06:59:04;99222.34;;;23.13;54.70
21730;BME280;11027;51.030;13.812;2023-07-24T07:01:29;99215.03;;;23.27;54.46
21730;BME280;11027;51.030;13.812;2023-07-24T07:03:54;99218.28;;;23.40;53.94
21730;BME280;11027;51.030;13.812;2023-07-24T07:06:19;99211.22;;;23.52;53.72
21730;BME280;11027;51.030;13.812;2023-07-24T07:08:45;99209.22;;;23.63;53.75
21730;BME280;11027;51.030;13.812;2023-07-24T07:11:10;99205.22;;;23.74;53.20
21730;BME280;11027;51.030;13.812;2023-07-24T07:13:35;99208.53;;;23.82;52.69
21730;BME280;11027;51.030;13.812;2023-07-24T07:16:00;99201.19;;;23.91;52.16
21730;BME280;11027;51.030;13.812;2023-07-24T07:18:26;99216.97;;;24.01;52.12
21730;BME280;11027;51.030;13.812;2023-07-24T07:20:53;99214.38;;;24.09;51.78
21730;BME280;11027;51.030;13.812;2023-07-24T07:23:18;99209.00;;;24.18;51.68
21730;BME280;11027;51.030;13.812;2023-07-24T07:25:44;99200.84;;;24.27;51.27
21730;BME280;11027;51.030;13.812;2023-07-24T07:28:15;99211.03;;;24.36;51.39
21730;BME280;11027;51.030;13.812;2023-07-24T07:30:42;99211.22;;;24.45;51.04
21730;BME280;11027;51.030;13.812;2023-07-24T07:33:07;99203.91;;;24.54;50.80
21730;BME280;11027;51.030;13.812;2023-07-24T07:35:33;99205.22;;;24.62;50.69
21730;BME280;11027;51.030;13.812;2023-07-24T07:37:58;99201.53;;;24.67;46.75
21730;BME280;11027;51.030;13.812;2023-07-24T07:40:24;99200.91;;;24.70;45.72
21730;BME280;11027;51.030;13.812;2023-07-24T07:42:51;99197.84;;;24.71;45.08
21730;BME280;11027;51.030;13.812;2023-07-24T07:45:17;99193.94;;;24.72;45.08
21730;BME280;11027;51.030;13.812;2023-07-24T07:47:42;99194.78;;;24.73;45.53
21730;BME280;11027;51.030;13.812;2023-07-24T07:50:08;99184.44;;;24.73;45.45
21730;BME280;11027;51.030;13.812;2023-07-24T07:52:33;99185.28;;;24.74;45.45
21730;BME280;11027;51.030;13.812;2023-07-24T07:54:58;99175.81;;;24.75;45.17
21730;BME280;11027;51.030;13.812;2023-07-24T07:57:23;99167.97;;;24.77;45.07
21730;BME280;11027;51.030;13.812;2023-07-24T07:59:49;99156.31;;;24.75;45.33
21730;BME280;11027;51.030;13.812;2023-07-24T08:02:14;99152.47;;;24.71;45.06
21730;BME280;11027;51.030;13.812;2023-07-24T08:04:39;99144.16;;;24.66;45.01
21730;BME280;11027;51.030;13.812;2023-07-24T08:07:04;99146.50;;;24.59;45.27
21730;BME280;11027;51.030;13.812;2023-07-24T08:09:30;99148.81;;;24.51;45.16
21730;BME280;11027;51.030;13.812;2023-07-24T08:11:55;99143.81;;;24.48;45.22
21730;BME280;11027;51.030;13.812;2023-07-24T08:14:20;99151.66;;;24.46;45.54
21730;BME280;11027;51.030;13.812;2023-07-24T08:16:49;99148.53;;;24.48;45.28
21730;BME280;11027;51.030;13.812;2023-07-24T08:19:14;99136.03;;;24.50;45.36
21730;BME280;11027;51.030;13.812;2023-07-24T08:21:40;99132.13;;;24.51;45.49
21730;BME280;11027;51.030;13.812;2023-07-24T08:24:05;99131.53;;;24.54;45.30
21730;BME280;11027;51.030;13.812;2023-07-24T08:26:30;99130.09;;;24.57;45.34
21730;BME280;11027;51.030;13.812;2023-07-24T08:28:56;99124.75;;;24.61;45.36
21730;BME280;11027;51.030;13.812;2023-07-24T08:31:21;99125.00;;;24.64;45.23
21730;BME280;11027;51.030;13.812;2023-07-24T08:33:46;99114.59;;;24.70;45.19
21730;BME280;11027;51.030;13.812;2023-07-24T08:36:12;99117.25;;;24.80;44.80
21730;BME280;11027;51.030;13.812;2023-07-24T08:38:37;99104.78;;;24.97;44.58
21730;BME280;11027;51.030;13.812;2023-07-24T08:41:03;99100.09;;;25.11;44.09
21730;BME280;11027;51.030;13.812;2023-07-24T08:43:29;99090.19;;;25.19;43.97
21730;BME280;11027;51.030;13.812;2023-07-24T08:45:59;99088.13;;;25.29;43.93
21730;BME280;11027;51.030;13.812;2023-07-24T08:48:32;99088.34;;;25.47;43.65
21730;BME280;11027;51.030;13.812;2023-07-24T08:51:01;99076.53;;;25.69;43.23
21730;BME280;11027;51.030;13.812;2023-07-24T08:53:28;99081.53;;;25.86;43.29
21730;BME280;11027;51.030;13.812;2023-07-24T08:55:54;99077.53;;;26.06;43.77
21730;BME280;11027;51.030;13.812;2023-07-24T08:58:20;99075.75;;;26.24;43.51
21730;BME280;11027;51.030;13.812;2023-07-24T09:00:46;99082.03;;;26.43;43.62
21730;BME280;11027;51.030;13.812;2023-07-24T09:03:11;99081.75;;;26.59;43.19
21730;BME280;11027;51.030;13.812;2023-07-24T09:05:37;99068.69;;;26.68;43.27
21730;BME280;11027;51.030;13.812;2023-07-24T09:08:02;99068.97;;;26.80;42.72
21730;BME280;11027;51.030;13.812;2023-07-24T09:10:27;99068.59;;;26.96;42.80
21730;BME280;11027;51.030;13.812;2023-07-24T09:12:54;99067.09;;;27.12;42.55
21730;BME280;11027;51.030;13.812;2023-07-24T09:15:19;99078.44;;;27.29;42.88
21730;BME280;11027;51.030;13.812;2023-07-24T09:17:52;99071.94;;;27.43;42.42
21730;BME280;11027;51.030;13.812;2023-07-24T09:20:19;99084.50;;;27.54;42.17
21730;BME280;11027;51.030;13.812;2023-07-24T09:22:52;99083.63;;;27.67;41.47
21730;BME280;11027;51.030;13.812;2023-07-24T09:25:18;99079.53;;;27.73;41.07
21730;BME280;11027;51.030;13.812;2023-07-24T09:27:43;99081.16;;;27.74;40.70
21730;BME280;11027;51.030;13.812;2023-07-24T09:30:13;99071.78;;;27.70;41.04
21730;BME280;11027;51.030;13.812;2023-07-24T09:32:40;99069.63;;;27.67;40.98
21730;BME280;11027;51.030;13.812;2023-07-24T09:35:16;99065.97;;;27.67;41.10
21730;BME280;11027;51.030;13.812;2023-07-24T09:37:42;99063.38;;;27.70;41.12
21730;BME280;11027;51.030;13.812;2023-07-24T09:40:09;99058.47;;;27.76;41.55
21730;BME280;11027;51.030;13.812;2023-07-24T09:42:35;99072.78;;;27.74;41.60
21730;BME280;11027;51.030;13.812;2023-07-24T09:45:04;99071.25;;;27.68;41.43
21730;BME280;11027;51.030;13.812;2023-07-24T09:47:30;99064.16;;;27.62;41.38
21730;BME280;11027;51.030;13.812;2023-07-24T09:49:56;99065.44;;;27.56;41.42
21730;BME280;11027;51.030;13.812;2023-07-24T09:52:23;99067.03;;;27.48;41.75
21730;BME280;11027;51.030;13.812;2023-07-24T09:54:57;99069.13;;;27.43;41.64
21730;BME280;11027;51.030;13.812;2023-07-24T09:57:25;99071.94;;;27.43;42.21
21730;BME280;11027;51.030;13.812;2023-07-24T09:59:52;99069.63;;;27.45;41.46
21730;BME280;11027;51.030;13.812;2023-07-24T10:02:19;99064.03;;;27.45;41.12
21730;BME280;11027;51.030;13.812;2023-07-24T10:04:44;99057.00;;;27.47;41.41
21730;BME280;11027;51.030;13.812;2023-07-24T10:07:10;99068.50;;;27.46;41.06
21730;BME280;11027;51.030;13.812;2023-07-24T10:09:35;99059.72;;;27.39;41.42
21730;BME280;11027;51.030;13.812;2023-07-24T10:12:02;99048.19;;;27.31;41.47
21730;BME280;11027;51.030;13.812;2023-07-24T10:14:28;99050.47;;;27.29;41.62
21730;BME280;11027;51.030;13.812;2023-07-24T10:16:55;99058.91;;;27.38;41.39
21730;BME280;11027;51.030;13.812;2023-07-24T10:19:21;99055.72;;;27.53;41.11
21730;BME280;11027;51.030;13.812;2023-07-24T10:21:47;99046.28;;;27.72;41.52
21730;BME280;11027;51.030;13.812;2023-07-24T10:24:14;99076.09;;;27.85;41.46
21730;BME280;11027;51.030;13.812;2023-07-24T10:26:39;99067.44;;;27.87;40.63
21730;BME280;11027;51.030;13.812;2023-07-24T10:29:05;99062.59;;;27.79;40.80
21730;BME280;11027;51.030;13.812;2023-07-24T10:31:31;99061.88;;;27.64;40.88
21730;BME280;11027;51.030;13.812;2023-07-24T10:34:03;99057.00;;;27.47;40.79
21730;BME280;11027;51.030;13.812;2023-07-24T10:36:33;99063.13;;;27.27;41.70
21730;BME280;11027;51.030;13.812;2023-07-24T10:38:59;99072.31;;;27.05;41.68
21730;BME280;11027;51.030;13.812;2023-07-24T10:41:34;99079.38;;;26.88;41.90
21730;BME280;11027;51.030;13.812;2023-07-24T10:44:00;99078.59;;;26.74;43.58
21730;BME280;11027;51.030;13.812;2023-07-24T10:46:39;99084.41;;;26.64;44.60
21730;BME280;11027;51.030;13.812;2023-07-24T10:49:05;99070.59;;;26.59;45.15
21730;BME280;11027;51.030;13.812;2023-07-24T10:51:31;99072.22;;;26.60;45.26
21730;BME280;11027;51.030;13.812;2023-07-24T10:53:59;99065.06;;;26.53;46.08
21730;BME280;11027;51.030;13.812;2023-07-24T10:56:24;99060.88;;;26.42;45.87
21730;BME280;11027;51.030;13.812;2023-07-24T10:58:50;99072.06;;;26.28;46.43
21730;BME280;11027;51.030;13.812;2023-07-24T11:01:17;99064.81;;;26.13;46.71
21730;BME280;11027;51.030;13.812;2023-07-24T11:03:43;99066.69;;;26.04;47.28
21730;BME280;11027;51.030;13.812;2023-07-24T11:06:19;99076.19;;;26.03;47.84
21730;BME280;11027;51.030;13.812;2023-07-24T11:09:13;99070.81;;;26.21;48.02
21730;BME280;11027;51.030;13.812;2023-07-24T11:11:38;99056.94;;;26.43;47.97
21730;BME280;11027;51.030;13.812;2023-07-24T11:14:04;99059.78;;;26.66;48.15
21730;BME280;11027;51.030;13.812;2023-07-24T11:16:29;99059.81;;;26.88;48.26
21730;BME280;11027;51.030;13.812;2023-07-24T11:18:56;99051.97;;;27.13;48.21
21730;BME280;11027;51.030;13.812;2023-07-24T11:21:24;99041.94;;;27.34;47.81
21730;BME280;11027;51.030;13.812;2023-07-24T11:23:52;99032.66;;;27.48;47.56
21730;BME280;11027;51.030;13.812;2023-07-24T11:26:22;99039.75;;;27.54;47.69
21730;BME280;11027;51.030;13.812;2023-07-24T11:28:49;99033.16;;;27.50;47.38
21730;BME280;11027;51.030;13.812;2023-07-24T11:31:15;99031.16;;;27.42;47.42
21730;BME280;11027;51.030;13.812;2023-07-24T11:33:40;99032.94;;;27.38;47.47
21730;BME280;11027;51.030;13.812;2023-07-24T11:36:07;99017.94;;;27.33;47.18
21730;BME280;11027;51.030;13.812;2023-07-24T11:38:33;99016.28;;;27.32;46.99
21730;BME280;11027;51.030;13.812;2023-07-24T11:40:58;99008.03;;;27.27;47.14
21730;BME280;11027;51.030;13.812;2023-07-24T11:43:24;99005.56;;;27.26;47.50
21730;BME280;11027;51.030;13.812;2023-07-24T11:45:51;99014.44;;;27.28;47.73
21730;BME280;11027;51.030;13.812;2023-07-24T11:48:21;99004.09;;;27.28;47.87
21730;BME280;11027;51.030;13.812;2023-07-24T11:50:49;98987.66;;;27.27;48.27
21730;BME280;11027;51.030;13.812;2023-07-24T11:53:25;98989.59;;;27.26;48.37
21730;BME280;11027;51.030;13.812;2023-07-24T11:55:52;98986.81;;;27.26;48.04
21730;BME280;11027;51.030;13.812;2023-07-24T11:58:19;98984.50;;;27.28;47.92
21730;BME280;11027;51.030;13.812;2023-07-24T12:00:46;98985.03;;;27.30;48.24
21730;BME280;11027;51.030;13.812;2023-07-24T12:03:12;98983.88;;;27.31;47.95
21730;BME280;11027;51.030;13.812;2023-07-24T12:05:39;98989.78;;;27.30;47.99
21730;BME280;11027;51.030;13.812;2023-07-24T12:08:05;98991.25;;;27.27;47.80
21730;BME280;11027;51.030;13.812;2023-07-24T12:10:31;98981.00;;;27.23;47.93
21730;BME280;11027;51.030;13.812;2023-07-24T12:12:58;98978.34;;;27.18;48.13
21730;BME280;11027;51.030;13.812;2023-07-24T12:15:24;98971.44;;;27.15;48.42
21730;BME280;11027;51.030;13.812;2023-07-24T12:17:51;98964.66;;;27.07;48.73
21730;BME280;11027;51.030;13.812;2023-07-24T12:20:16;98974.00;;;27.03;48.99
21730;BME280;11027;51.030;13.812;2023-07-24T12:22:42;98968.00;;;26.96;49.08
21730;BME280;11027;51.030;13.812;2023-07-24T12:25:07;98967.97;;;26.87;49.66
21730;BME280;11027;51.030;13.812;2023-07-24T12:27:33;98969.34;;;26.76;48.41
21730;BME280;11027;51.030;13.812;2023-07-24T12:29:59;98960.41;;;26.65;48.47
21730;BME280;11027;51.030;13.812;2023-07-24T12:32:24;98976.22;;;26.55;48.86
21730;BME280;11027;51.030;13.812;2023-07-24T12:34:51;98967.78;;;26.47;48.90
21730;BME280;11027;51.030;13.812;2023-07-24T12:37:17;98979.41;;;26.40;49.01
21730;BME280;11027;51.030;13.812;2023-07-24T12:39:44;98979.00;;;26.33;49.25
21730;BME280;11027;51.030;13.812;2023-07-24T12:42:10;98979.72;;;26.25;49.33
21730;BME280;11027;51.030;13.812;2023-07-24T12:44:36;98979.66;;;26.16;49.46
21730;BME280;11027;51.030;13.812;2023-07-24T12:47:01;98999.06;;;26.07;49.72